createdAt,value
2023-02-22T00:02:25.465Z,0.40
2023-02-22T00:04:54.054Z,0.13
2023-02-22T00:07:23.887Z,0.63
2023-02-22T00:09:52.013Z,0.10
2023-02-22T00:12:20.715Z,0.40
2023-02-22T00:14:48.895Z,0.60
2023-02-22T00:17:17.019Z,0.47
2023-02-22T00:19:45.118Z,0.20
2023-02-22T00:22:13.211Z,0.30
2023-02-22T00:24:42.798Z,0.60
2023-02-22T00:27:11.155Z,0.20
2023-02-22T00:29:39.263Z,0.20
2023-02-22T00:32:07.479Z,0.20
2023-02-22T00:34:35.586Z,0.30
2023-02-22T00:37:05.720Z,0.50
2023-02-22T00:39:34.050Z,0.10
2023-02-22T00:42:04.087Z,0.10
2023-02-22T00:44:33.177Z,0.53
2023-02-22T00:47:01.283Z,0.47
2023-02-22T00:49:29.421Z,0.37
2023-02-22T00:51:57.576Z,0.40
2023-02-22T00:54:25.748Z,0.67
2023-02-22T00:56:53.867Z,0.37
2023-02-22T00:59:23.402Z,0.27
2023-02-22T01:01:51.730Z,0.30
2023-02-22T01:04:20.040Z,0.20
2023-02-22T01:06:48.412Z,0.60
2023-02-22T01:09:16.536Z,0.50
2023-02-22T01:11:45.454Z,0.13
2023-02-22T01:14:13.562Z,0.20
2023-02-22T01:16:43.113Z,0.70
2023-02-22T01:19:12.736Z,0.43
2023-02-22T01:21:41.697Z,0.23
2023-02-22T01:24:10.246Z,0.20
2023-02-22T01:26:38.370Z,0.30
2023-02-22T01:29:08.080Z,0.63
2023-02-22T01:31:36.165Z,0.30
2023-02-22T01:34:05.730Z,0.20
2023-02-22T01:36:33.883Z,0.10
2023-02-22T01:39:01.959Z,0.23
2023-02-22T01:41:30.214Z,0.10
2023-02-22T01:43:58.302Z,0.50
2023-02-22T01:46:29.976Z,0.30
2023-02-22T01:49:02.082Z,0.20
2023-02-22T01:51:37.603Z,0.33
2023-02-22T01:54:11.343Z,0.20
2023-02-22T01:56:47.395Z,0.10
2023-02-22T01:59:16.254Z,0.60
2023-02-22T02:01:44.813Z,0.13
2023-02-22T02:04:17.746Z,0.60
2023-02-22T02:06:48.450Z,0.90
2023-02-22T02:09:22.812Z,0.37
2023-02-22T02:11:51.475Z,0.20
2023-02-22T02:14:19.690Z,0.10
2023-02-22T02:16:53.356Z,0.10
2023-02-22T02:19:33.280Z,0.13
2023-02-22T02:22:30.297Z,0.83
2023-02-22T02:25:35.631Z,0.10
2023-02-22T02:28:39.666Z,0.27
2023-02-22T02:31:28.909Z,0.20
2023-02-22T02:34:03.326Z,0.37
2023-02-22T02:36:37.784Z,0.30
2023-02-22T02:39:15.471Z,0.37
2023-02-22T02:41:48.383Z,0.10
2023-02-22T02:44:23.151Z,0.03
2023-02-22T02:46:57.738Z,0.30
2023-02-22T02:49:32.524Z,0.27
2023-02-22T02:52:02.104Z,0.30
2023-02-22T02:54:31.523Z,0.50
2023-02-22T02:56:59.842Z,0.33
2023-02-22T02:59:30.137Z,0.20
2023-02-22T03:02:24.718Z,0.57
2023-02-22T03:05:12.949Z,0.20
2023-02-22T03:07:50.990Z,0.47
2023-02-22T03:10:45.069Z,0.00
2023-02-22T03:13:20.995Z,0.30
2023-02-22T03:15:55.503Z,0.10
2023-02-22T03:18:30.322Z,0.13
2023-02-22T03:21:08.459Z,0.27
2023-02-22T03:23:45.036Z,0.53
2023-02-22T03:26:19.570Z,0.47
2023-02-22T03:28:50.336Z,0.10
2023-02-22T03:31:24.436Z,0.30
2023-02-22T03:33:56.860Z,0.27
2023-02-22T03:36:30.273Z,0.20
2023-02-22T03:39:01.676Z,0.10
2023-02-22T03:41:30.927Z,0.10
2023-02-22T03:44:04.652Z,0.10
2023-02-22T03:46:34.059Z,0.40
2023-02-22T03:49:07.760Z,0.20
2023-02-22T03:51:39.704Z,0.10
2023-02-22T03:54:09.474Z,0.20
2023-02-22T03:56:47.496Z,0.73
2023-02-22T03:59:16.184Z,0.50
2023-02-22T04:01:44.370Z,0.10
2023-02-22T04:04:12.666Z,0.73
2023-02-22T04:06:42.318Z,0.20
2023-02-22T04:09:10.481Z,0.20
2023-02-22T04:11:38.697Z,0.60
2023-02-22T04:14:06.983Z,0.13
2023-02-22T04:16:35.260Z,0.30
2023-02-22T04:19:03.418Z,0.10
2023-02-22T04:21:31.498Z,0.40
2023-02-22T04:24:01.171Z,0.40
2023-02-22T04:26:29.325Z,0.20
2023-02-22T04:28:57.431Z,0.10
2023-02-22T04:31:25.717Z,0.20
2023-02-22T04:33:53.844Z,0.30
2023-02-22T04:36:22.086Z,0.20
2023-02-22T04:38:50.287Z,0.17
2023-02-22T04:41:21.019Z,0.17
2023-02-22T04:43:49.110Z,0.00
2023-02-22T04:46:17.558Z,0.40
2023-02-22T04:48:45.947Z,0.30
2023-02-22T04:51:14.116Z,0.00
2023-02-22T04:53:42.357Z,0.20
2023-02-22T04:56:10.535Z,0.13
2023-02-22T04:58:40.076Z,0.47
2023-02-22T05:01:08.575Z,0.27
2023-02-22T05:03:39.015Z,0.10
2023-02-22T05:06:07.997Z,0.03
2023-02-22T05:08:36.415Z,0.10
2023-02-22T05:11:05.285Z,0.10
2023-02-22T05:13:33.556Z,0.20
2023-02-22T05:16:04.026Z,0.40
2023-02-22T05:18:32.305Z,0.93
2023-02-22T05:21:00.378Z,0.37
2023-02-22T05:23:28.523Z,0.30
2023-02-22T05:25:56.652Z,0.30
2023-02-22T05:28:24.845Z,0.20
2023-02-22T05:30:53.014Z,0.20
2023-02-22T05:33:22.553Z,0.20
2023-02-22T05:35:50.663Z,0.73
2023-02-22T05:38:18.840Z,0.27
2023-02-22T05:40:47.030Z,0.20
2023-02-22T05:43:15.828Z,0.20
2023-02-22T05:45:44.022Z,0.17
2023-02-22T05:48:13.045Z,0.00
2023-02-22T05:50:42.606Z,0.27
2023-02-22T05:53:10.819Z,0.37
2023-02-22T05:55:38.970Z,0.93
2023-02-22T05:58:07.153Z,0.23
2023-02-22T06:00:35.326Z,0.10
2023-02-22T06:03:05.853Z,0.20
2023-02-22T06:05:34.082Z,0.10
2023-02-22T06:08:04.489Z,0.20
2023-02-22T06:10:33.044Z,0.10
2023-02-22T06:13:02.411Z,0.37
2023-02-22T06:15:30.949Z,0.20
2023-02-22T06:18:00.270Z,0.20
2023-02-22T06:20:30.558Z,0.30
2023-02-22T06:22:59.835Z,0.90
2023-02-22T06:25:31.565Z,0.10
2023-02-22T06:28:00.121Z,0.00
2023-02-22T06:30:29.126Z,0.10
2023-02-22T06:32:57.704Z,0.20
2023-02-22T06:35:26.024Z,0.30
2023-02-22T06:37:54.147Z,0.10
2023-02-22T06:40:22.584Z,0.23
2023-02-22T06:42:53.779Z,0.10
2023-02-22T06:45:22.117Z,0.10
2023-02-22T06:47:50.908Z,0.10
2023-02-22T06:50:22.704Z,0.77
2023-02-22T06:52:51.177Z,0.37
2023-02-22T06:55:21.962Z,0.27
2023-02-22T06:57:51.820Z,0.43
2023-02-22T07:00:22.216Z,0.13
2023-02-22T07:02:50.626Z,0.20
2023-02-22T07:05:20.286Z,0.10
2023-02-22T07:10:21.518Z,0.00
2023-02-22T07:32:46.945Z,0.47
2023-02-22T07:35:17.371Z,0.20
2023-02-22T07:37:45.553Z,0.50
2023-02-22T07:40:14.098Z,0.47
2023-02-22T07:42:56.484Z,0.33
2023-02-22T07:45:25.917Z,0.50
2023-02-22T07:47:55.876Z,0.27
2023-02-22T07:50:25.489Z,0.30
2023-02-22T07:52:56.130Z,0.27
2023-02-22T07:55:27.707Z,0.20
2023-02-22T07:57:58.312Z,0.27
2023-02-22T08:00:28.087Z,0.60
2023-02-22T08:02:58.129Z,0.33
2023-02-22T08:05:28.690Z,0.37
2023-02-22T08:07:57.161Z,0.27
2023-02-22T08:10:26.914Z,0.50
2023-02-22T08:12:56.260Z,0.50
2023-02-22T08:15:26.074Z,0.80
2023-02-22T08:17:54.662Z,0.60
2023-02-22T08:20:24.559Z,0.30
2023-02-22T08:22:53.522Z,0.57
2023-02-22T08:25:25.362Z,0.80
2023-02-22T08:27:58.788Z,0.67
2023-02-22T08:30:27.268Z,0.53
2023-02-22T08:32:55.611Z,1.17
2023-02-22T08:35:27.713Z,0.47
2023-02-22T08:37:58.730Z,0.20
2023-02-22T08:40:29.279Z,1.03
2023-02-22T08:42:57.560Z,0.83
2023-02-22T08:45:25.861Z,0.40
2023-02-22T08:47:53.999Z,0.67
2023-02-22T08:50:26.025Z,0.77
2023-02-22T08:52:55.835Z,0.47
2023-02-22T08:55:25.117Z,0.47
2023-02-22T08:57:53.398Z,0.40
2023-02-22T09:00:25.422Z,0.70
2023-02-22T09:02:53.813Z,1.27
2023-02-22T09:05:22.507Z,1.10
2023-02-22T09:07:52.098Z,1.40
2023-02-22T09:10:24.541Z,0.60
2023-02-22T09:12:53.195Z,0.73
2023-02-22T09:15:21.350Z,0.80
2023-02-22T09:17:50.155Z,0.90
2023-02-22T09:20:20.615Z,1.47
2023-02-22T09:22:50.112Z,1.37
2023-02-22T09:25:21.323Z,1.27
2023-02-22T09:27:50.603Z,1.47
2023-02-22T09:30:23.900Z,0.90
2023-02-22T09:32:54.079Z,1.03
2023-02-22T09:35:27.564Z,1.63
2023-02-22T09:37:57.143Z,1.40
2023-02-22T09:40:30.731Z,1.13
2023-02-22T09:43:11.184Z,0.90
2023-02-22T09:45:49.102Z,0.90
2023-02-22T09:48:22.316Z,1.40
2023-02-22T09:50:52.450Z,1.93
2023-02-22T09:53:29.903Z,0.90
2023-02-22T09:56:03.594Z,2.20
2023-02-22T09:58:35.046Z,1.23
2023-02-22T10:01:20.046Z,1.40
2023-02-22T10:03:55.678Z,0.73
2023-02-22T10:06:26.093Z,1.63
2023-02-22T10:08:58.767Z,0.90
2023-02-22T10:11:50.855Z,0.73
2023-02-22T10:14:49.599Z,1.07
2023-02-22T10:17:30.535Z,1.10
2023-02-22T10:20:18.248Z,0.77
2023-02-22T10:22:58.063Z,0.77
2023-02-22T10:25:29.865Z,0.60
2023-02-22T10:28:03.769Z,1.47
2023-02-22T10:30:36.872Z,1.07
2023-02-22T10:33:11.876Z,0.93
2023-02-22T10:35:42.128Z,1.30
2023-02-22T10:38:18.031Z,1.10
2023-02-22T10:40:51.561Z,0.77
2023-02-22T10:43:21.178Z,1.03
2023-02-22T10:45:50.345Z,1.43
2023-02-22T10:48:21.281Z,1.07
2023-02-22T10:50:50.657Z,1.67
2023-02-22T10:53:18.780Z,0.70
2023-02-22T10:56:17.071Z,1.23
2023-02-22T10:58:50.538Z,0.43
2023-02-22T11:01:34.970Z,1.30
2023-02-22T11:04:08.887Z,1.17
2023-02-22T11:06:37.760Z,0.70
2023-02-22T11:09:11.293Z,1.70
2023-02-22T11:11:41.321Z,1.87
2023-02-22T11:14:11.918Z,1.30
2023-02-22T11:16:43.626Z,1.07
2023-02-22T11:19:21.157Z,0.50
2023-02-22T11:21:53.101Z,1.30
2023-02-22T11:24:24.926Z,1.37
2023-02-22T11:26:56.594Z,0.87
2023-02-22T11:29:32.128Z,1.03
2023-02-22T11:32:04.263Z,0.80
2023-02-22T11:34:36.955Z,0.97
2023-02-22T11:37:29.455Z,1.30
2023-02-22T11:40:18.402Z,1.23
2023-02-22T11:42:47.014Z,2.00
2023-02-22T11:45:21.359Z,1.47
2023-02-22T11:47:53.806Z,0.83
2023-02-22T11:50:33.166Z,1.57
2023-02-22T11:53:25.413Z,0.80
2023-02-22T11:56:03.171Z,1.07
2023-02-22T11:58:43.342Z,0.90
2023-02-22T12:01:28.052Z,2.00
2023-02-22T12:04:29.874Z,1.20
2023-02-22T12:07:21.915Z,1.17
2023-02-22T12:09:56.215Z,0.63
2023-02-22T12:12:35.304Z,1.23
2023-02-22T12:15:09.887Z,1.17
2023-02-22T12:17:59.816Z,1.60
2023-02-22T12:20:37.268Z,1.00
2023-02-22T12:23:16.406Z,1.10
2023-02-22T12:25:58.572Z,1.17
2023-02-22T12:28:34.994Z,0.97
2023-02-22T12:31:15.583Z,1.43
2023-02-22T12:33:53.304Z,0.83
2023-02-22T12:36:32.496Z,1.53
2023-02-22T12:39:07.606Z,1.27
2023-02-22T12:41:41.640Z,1.60
2023-02-22T12:44:17.463Z,0.80
2023-02-22T12:46:48.979Z,0.73
2023-02-22T12:49:28.419Z,1.23
2023-02-22T12:52:12.425Z,0.90
2023-02-22T12:54:49.919Z,1.00
2023-02-22T12:57:25.930Z,0.60
2023-02-22T12:59:57.480Z,1.30
2023-02-22T13:02:32.224Z,1.17
2023-02-22T13:05:02.546Z,1.20
2023-02-22T13:07:47.048Z,1.00
2023-02-22T13:10:27.739Z,0.90
2023-02-22T13:13:04.025Z,0.77
2023-02-22T13:15:44.961Z,1.60
2023-02-22T13:18:20.325Z,0.73
2023-02-22T13:20:56.154Z,1.15
2023-02-22T13:23:39.095Z,1.58
2023-02-22T13:26:13.434Z,1.77
2023-02-22T13:28:47.091Z,0.93
2023-02-22T13:31:40.046Z,1.48
2023-02-22T13:34:50.661Z,1.15
2023-02-22T13:37:38.586Z,1.25
2023-02-22T13:40:38.407Z,1.20
2023-02-22T13:43:33.345Z,1.17
2023-02-22T13:46:34.095Z,0.88
2023-02-22T13:49:37.407Z,0.93
2023-02-22T13:52:09.604Z,1.30
2023-02-22T13:54:44.971Z,1.75
2023-02-22T13:57:24.784Z,0.77
2023-02-22T14:00:21.171Z,0.95
2023-02-22T14:03:02.482Z,1.55
2023-02-22T14:05:51.099Z,1.40
2023-02-22T14:08:44.405Z,1.75
2023-02-22T14:11:57.954Z,0.95
2023-02-22T14:14:27.662Z,1.08
2023-02-22T14:17:23.069Z,1.20
2023-02-22T14:20:21.050Z,1.33
2023-02-22T14:22:53.027Z,0.93
2023-02-22T14:25:33.897Z,1.42
2023-02-22T14:28:04.058Z,1.10
2023-02-22T14:30:38.127Z,1.63
2023-02-22T14:33:51.348Z,1.50
2023-02-22T14:36:22.389Z,1.60
2023-02-22T14:38:54.853Z,2.72
2023-02-22T14:41:27.592Z,1.10
2023-02-22T14:43:57.784Z,1.23
2023-02-22T14:46:33.013Z,1.48
2023-02-22T14:49:05.376Z,0.85
2023-02-22T14:51:41.959Z,0.98
2023-02-22T14:54:14.762Z,1.15
2023-02-22T14:56:49.321Z,1.10
2023-02-22T14:59:21.363Z,1.40
2023-02-22T15:02:05.989Z,1.05
2023-02-22T15:04:39.123Z,1.40
2023-02-22T15:07:21.150Z,0.95
2023-02-22T15:09:49.855Z,0.80
2023-02-22T15:12:25.734Z,0.88
2023-02-22T15:15:14.118Z,0.73
2023-02-22T15:17:46.594Z,1.02
2023-02-22T15:20:20.841Z,0.68
2023-02-22T15:22:50.908Z,0.70
2023-02-22T15:25:26.315Z,1.35
2023-02-22T15:27:54.565Z,0.95
2023-02-22T15:30:27.010Z,0.97
2023-02-22T15:33:04.508Z,0.80
2023-02-22T15:35:34.207Z,1.87
2023-02-22T15:38:06.212Z,1.33
2023-02-22T15:40:35.585Z,0.50
2023-02-22T15:43:08.973Z,0.65
2023-02-22T15:45:43.187Z,0.60
2023-02-22T15:48:14.660Z,1.77
2023-02-22T15:51:04.257Z,0.80
2023-02-22T15:53:40.176Z,0.90
2023-02-22T15:56:13.546Z,0.60
2023-02-22T15:58:42.378Z,0.90
2023-02-22T16:01:14.289Z,1.07
2023-02-22T16:03:47.236Z,0.53
2023-02-22T16:06:22.794Z,1.50
2023-02-22T16:08:55.537Z,0.90
2023-02-22T16:11:30.208Z,0.70
2023-02-22T16:14:02.602Z,0.43
2023-02-22T16:16:32.900Z,1.00
2023-02-22T16:19:33.374Z,1.20
2023-02-22T16:22:04.091Z,1.33
2023-02-22T16:24:34.448Z,1.23
2023-02-22T16:27:16.780Z,0.70
2023-02-22T16:29:45.298Z,0.77
2023-02-22T16:32:15.498Z,1.67
2023-02-22T16:34:45.152Z,1.07
2023-02-22T16:37:23.877Z,0.57
2023-02-22T16:39:52.578Z,1.33
2023-02-22T16:42:24.364Z,0.90
2023-02-22T16:44:53.355Z,0.53
2023-02-22T16:47:21.757Z,0.90
2023-02-22T16:49:53.142Z,0.93
2023-02-22T16:52:22.028Z,1.00
2023-02-22T16:54:50.335Z,1.00
2023-02-22T16:57:21.543Z,1.50
2023-02-22T16:59:52.282Z,0.97
2023-02-22T17:02:22.523Z,0.70
2023-02-22T17:04:52.065Z,0.70
2023-02-22T17:07:23.919Z,0.97
2023-02-22T17:09:52.301Z,0.50
2023-02-22T17:12:20.581Z,0.80
2023-02-22T17:14:48.758Z,0.97
2023-02-22T17:17:17.463Z,0.57
2023-02-22T17:19:45.821Z,1.70
2023-02-22T17:22:20.467Z,1.30
2023-02-22T17:24:49.353Z,1.30
2023-02-22T17:27:17.486Z,1.67
2023-02-22T17:29:45.731Z,1.07
2023-02-22T17:32:15.036Z,1.00
2023-02-22T17:34:43.246Z,1.30
2023-02-22T17:37:11.914Z,1.03
2023-02-22T17:39:41.435Z,1.33
2023-02-22T17:42:09.585Z,1.27
2023-02-22T17:44:38.017Z,0.67
2023-02-22T17:47:07.206Z,0.90
2023-02-22T17:49:35.335Z,0.90
2023-02-22T17:52:06.416Z,1.60
2023-02-22T17:54:34.808Z,0.97
2023-02-22T17:57:04.589Z,0.70
2023-02-22T17:59:32.925Z,1.37
2023-02-22T18:02:01.155Z,1.10
2023-02-22T18:04:29.420Z,0.90
2023-02-22T18:06:57.558Z,1.53
2023-02-22T18:09:25.828Z,1.57
2023-02-22T18:11:53.983Z,1.30
2023-02-22T18:14:23.815Z,2.03
2023-02-22T18:16:52.055Z,1.50
2023-02-22T18:19:23.083Z,0.97
2023-02-22T18:21:52.683Z,1.63
2023-02-22T18:24:20.921Z,1.43
2023-02-22T18:26:50.592Z,1.33
2023-02-22T18:29:18.862Z,1.83
2023-02-22T18:31:48.498Z,2.47
2023-02-22T18:34:17.736Z,1.50
2023-02-22T18:36:45.982Z,1.27
2023-02-22T18:39:14.165Z,1.70
2023-02-22T18:41:42.377Z,2.20
2023-02-22T18:44:11.216Z,1.43
2023-02-22T18:46:39.542Z,1.83
2023-02-22T18:49:12.017Z,1.90
2023-02-22T18:51:43.658Z,2.13
2023-02-22T18:54:13.459Z,1.90
2023-02-22T18:56:55.145Z,2.13
2023-02-22T18:59:23.330Z,1.40
2023-02-22T19:01:51.595Z,2.10
2023-02-22T19:04:22.027Z,1.43
2023-02-22T19:06:50.330Z,1.30
2023-02-22T19:09:18.621Z,3.17
2023-02-22T19:11:48.522Z,1.70
2023-02-22T19:14:18.033Z,1.63
2023-02-22T19:16:47.803Z,2.33
2023-02-22T19:19:21.080Z,3.10
2023-02-22T19:21:52.456Z,2.40
2023-02-22T19:24:21.526Z,2.40
2023-02-22T19:26:53.661Z,2.33
2023-02-22T19:29:24.435Z,2.73
2023-02-22T19:31:53.973Z,2.57
2023-02-22T19:34:25.021Z,2.20
2023-02-22T19:36:56.079Z,2.47
2023-02-22T19:39:26.239Z,1.53
2023-02-22T19:41:57.604Z,2.17
2023-02-22T19:44:27.470Z,2.43
2023-02-22T19:46:56.406Z,1.93
2023-02-22T19:51:58.357Z,1.63
2023-02-22T19:54:26.774Z,2.27
2023-02-22T19:56:58.503Z,3.47
2023-02-22T19:59:27.001Z,2.63
2023-02-22T20:01:56.414Z,1.87
2023-02-22T20:04:25.218Z,1.60
2023-02-22T20:06:57.683Z,1.50
2023-02-22T20:09:33.809Z,2.17
2023-02-22T20:12:02.129Z,2.53
2023-02-22T20:14:30.705Z,1.87
2023-02-22T20:17:00.587Z,1.73
2023-02-22T20:19:29.905Z,2.17
2023-02-22T20:22:00.714Z,1.60
2023-02-22T20:24:28.976Z,1.73
2023-02-22T20:26:58.664Z,1.37
2023-02-22T20:29:30.930Z,1.27
2023-02-22T20:32:02.860Z,1.67
2023-02-22T20:34:34.224Z,1.50
2023-02-22T20:37:05.725Z,1.13
2023-02-22T20:39:34.061Z,1.33
2023-02-22T20:42:04.869Z,1.90
2023-02-22T20:44:33.337Z,1.43
2023-02-22T20:47:04.023Z,1.83
2023-02-22T20:49:32.397Z,1.43
2023-02-22T20:52:00.963Z,1.23
2023-02-22T20:54:30.665Z,1.77
2023-02-22T20:56:59.280Z,1.77
2023-02-22T20:59:29.287Z,2.70
2023-02-22T21:01:57.597Z,2.00
2023-02-22T21:04:26.996Z,1.50
2023-02-22T21:06:55.690Z,1.20
2023-02-22T21:09:23.857Z,1.73
2023-02-22T21:11:53.391Z,2.17
2023-02-22T21:14:23.952Z,1.00
2023-02-22T21:16:53.520Z,1.50
2023-02-22T21:19:26.588Z,1.30
2023-02-22T21:22:01.505Z,1.47
2023-02-22T21:24:30.763Z,3.00
2023-02-22T21:27:00.486Z,1.90
2023-02-22T21:29:29.476Z,1.20
2023-02-22T21:31:58.210Z,1.83
2023-02-22T21:34:26.660Z,1.47
2023-02-22T21:36:54.986Z,1.30
2023-02-22T21:39:28.346Z,1.63
2023-02-22T21:42:02.112Z,1.93
2023-02-22T21:44:30.869Z,2.03
2023-02-22T21:46:59.080Z,1.57
2023-02-22T21:49:27.247Z,2.33
2023-02-22T21:51:56.565Z,1.40
2023-02-22T21:54:25.022Z,1.50
2023-02-22T21:56:54.592Z,2.13
2023-02-22T21:59:24.569Z,1.93
2023-02-22T22:01:56.231Z,2.20
2023-02-22T22:04:27.852Z,1.50
2023-02-22T22:06:58.084Z,2.03
2023-02-22T22:09:29.212Z,1.03
2023-02-22T22:11:59.718Z,1.93
2023-02-22T22:14:29.398Z,1.97
2023-02-22T22:16:59.601Z,2.23
2023-02-22T22:19:29.269Z,2.27
2023-02-22T22:21:57.749Z,1.43
2023-02-22T22:24:27.240Z,2.20
2023-02-22T22:26:55.569Z,2.73
2023-02-22T22:29:24.856Z,2.00
2023-02-22T22:31:54.613Z,1.43
2023-02-22T22:34:24.462Z,2.40
2023-02-22T22:36:52.810Z,1.73
2023-02-22T22:39:21.308Z,1.43
2023-02-22T22:41:49.906Z,1.20
2023-02-22T22:44:22.417Z,1.53
2023-02-22T22:46:53.823Z,1.40
2023-02-22T22:49:25.479Z,1.10
2023-02-22T22:51:54.615Z,1.13
2023-02-22T22:54:22.882Z,1.80
2023-02-22T22:56:50.997Z,2.33
2023-02-22T22:59:19.201Z,1.20
2023-02-22T23:01:47.443Z,2.50
2023-02-22T23:04:17.521Z,2.00
2023-02-22T23:06:50.009Z,1.27
2023-02-22T23:09:21.942Z,1.90
2023-02-22T23:11:53.493Z,1.40
2023-02-22T23:14:24.923Z,1.23
2023-02-22T23:16:56.651Z,2.00
2023-02-22T23:19:24.822Z,1.20
2023-02-22T23:21:56.047Z,1.37
2023-02-22T23:24:27.442Z,1.40
2023-02-22T23:27:00.296Z,1.10
2023-02-22T23:29:30.006Z,1.60
2023-02-22T23:31:58.986Z,1.50
2023-02-22T23:34:29.089Z,1.30
2023-02-22T23:36:58.734Z,1.23
2023-02-22T23:39:27.352Z,1.73
2023-02-22T23:41:56.906Z,1.67
2023-02-22T23:44:27.161Z,1.37
2023-02-22T23:46:56.091Z,1.83
2023-02-22T23:49:26.443Z,0.83
2023-02-22T23:51:55.055Z,0.83
2023-02-22T23:54:24.975Z,1.33
2023-02-22T23:56:56.994Z,1.70
2023-02-22T23:59:26.112Z,1.60
